createdAt,value
2022-08-27T00:00:57.861Z,100920.91
2022-08-27T00:03:45.017Z,100933.41
2022-08-27T00:06:30.925Z,100930.22
2022-08-27T00:09:16.621Z,100930.81
2022-08-27T00:12:13.573Z,100926.91
2022-08-27T00:15:00.361Z,100923.59
2022-08-27T00:17:46.803Z,100929.84
2022-08-27T00:20:32.648Z,100933.94
2022-08-27T00:23:17.950Z,100929.72
2022-08-27T00:26:05.738Z,100929.91
2022-08-27T00:28:52.075Z,100932.81
2022-08-27T00:31:37.854Z,100936.88
2022-08-27T00:34:23.860Z,100929.72
2022-08-27T00:37:09.437Z,100923.81
2022-08-27T00:39:55.229Z,100931.97
2022-08-27T00:42:42.365Z,100922.41
2022-08-27T00:45:28.142Z,100925.63
2022-08-27T00:48:18.277Z,100919.25
2022-08-27T00:51:05.776Z,100920.44
2022-08-27T00:53:53.681Z,100929.16
2022-08-27T00:56:51.415Z,100918.13
2022-08-27T00:59:38.360Z,100922.06
2022-08-27T01:02:29.262Z,100917.16
2022-08-27T01:05:18.492Z,100922.56
2022-08-27T01:08:09.256Z,100926.03
2022-08-27T01:10:58.333Z,100921.56
2022-08-27T01:14:00.114Z,100910.56
2022-08-27T01:16:51.521Z,100936.28
2022-08-27T01:19:53.811Z,100933.59
2022-08-27T01:23:01.598Z,100933.88
2022-08-27T01:25:47.685Z,100932.22
2022-08-27T01:28:35.787Z,100944.50
2022-08-27T01:31:23.717Z,100935.97
2022-08-27T01:34:09.147Z,100942.75
2022-08-27T01:36:57.424Z,100939.84
2022-08-27T01:39:43.332Z,100949.59
2022-08-27T01:42:39.408Z,100950.16
2022-08-27T01:45:29.528Z,100954.06
2022-08-27T01:48:16.504Z,100952.84
2022-08-27T01:51:01.769Z,100972.78
2022-08-27T01:53:48.250Z,100966.81
2022-08-27T01:56:33.669Z,100974.88
2022-08-27T01:59:19.319Z,100967.06
2022-08-27T02:02:05.818Z,100966.28
2022-08-27T02:04:51.964Z,100971.31
2022-08-27T02:07:38.881Z,100970.97
2022-08-27T02:10:33.060Z,100972.06
2022-08-27T02:13:18.705Z,100958.78
2022-08-27T02:16:04.564Z,100959.88
2022-08-27T02:18:50.333Z,100954.56
2022-08-27T02:21:36.149Z,100967.03
2022-08-27T02:24:21.723Z,100959.63
2022-08-27T02:27:07.863Z,100948.19
2022-08-27T02:29:55.370Z,100954.94
2022-08-27T02:32:40.772Z,100958.06
2022-08-27T02:35:27.368Z,100942.94
2022-08-27T02:38:13.937Z,100942.72
2022-08-27T02:40:59.397Z,100949.75
2022-08-27T02:43:45.605Z,100957.34
2022-08-27T02:46:31.594Z,100943.97
2022-08-27T02:49:17.962Z,100952.56
2022-08-27T02:52:03.782Z,100948.78
2022-08-27T02:54:50.279Z,100950.22
2022-08-27T02:57:36.604Z,100949.03
2022-08-27T03:00:24.340Z,100959.84
2022-08-27T03:03:10.650Z,100961.44
2022-08-27T03:05:58.031Z,100952.88
2022-08-27T03:08:53.333Z,100962.03
2022-08-27T03:11:39.521Z,100950.56
2022-08-27T03:14:25.132Z,100960.78
2022-08-27T03:17:29.286Z,100964.63
2022-08-27T03:20:14.903Z,100969.28
2022-08-27T03:23:00.616Z,100968.28
2022-08-27T03:25:51.869Z,100965.88
2022-08-27T03:28:38.657Z,100963.47
2022-08-27T03:31:27.218Z,100964.09
2022-08-27T03:34:13.212Z,100960.09
2022-08-27T03:37:00.239Z,100960.84
2022-08-27T03:39:46.037Z,100966.81
2022-08-27T03:42:31.639Z,100965.88
2022-08-27T03:45:17.118Z,100961.78
2022-08-27T03:48:02.649Z,100964.00
2022-08-27T03:50:49.974Z,100967.91
2022-08-27T03:53:37.646Z,100969.59
2022-08-27T03:56:23.140Z,100969.72
2022-08-27T03:59:08.834Z,100968.13
2022-08-27T04:01:54.523Z,100973.56
2022-08-27T04:04:40.054Z,100974.38
2022-08-27T04:07:25.702Z,100966.94
2022-08-27T04:10:12.300Z,100963.28
2022-08-27T04:12:57.623Z,100973.22
2022-08-27T04:15:44.833Z,100969.72
2022-08-27T04:18:30.806Z,100965.47
2022-08-27T04:21:16.169Z,100967.84
2022-08-27T04:24:02.186Z,100951.06
2022-08-27T04:26:47.767Z,100969.56
2022-08-27T04:29:33.731Z,100967.75
2022-08-27T04:32:19.349Z,100969.25
2022-08-27T04:35:05.549Z,100966.53
2022-08-27T04:37:51.440Z,100964.53
2022-08-27T04:40:56.575Z,100958.47
2022-08-27T04:43:42.281Z,100956.97
2022-08-27T04:46:30.718Z,100961.81
2022-08-27T04:49:16.812Z,100958.09
2022-08-27T04:52:03.579Z,100963.16
2022-08-27T04:54:50.417Z,100955.88
2022-08-27T04:57:37.856Z,100964.00
2022-08-27T05:00:23.454Z,100947.69
2022-08-27T05:03:08.939Z,100964.72
2022-08-27T05:06:03.294Z,100962.28
2022-08-27T05:08:50.334Z,100963.22
2022-08-27T05:11:35.622Z,100974.53
2022-08-27T05:14:22.133Z,100976.47
2022-08-27T05:17:07.549Z,100968.00
2022-08-27T05:19:53.180Z,100972.38
2022-08-27T05:22:39.589Z,100969.59
2022-08-27T05:25:26.671Z,100967.63
2022-08-27T05:28:13.501Z,100981.53
2022-08-27T05:31:06.458Z,100976.13
2022-08-27T05:33:51.869Z,100978.91
2022-08-27T05:36:48.922Z,100979.94
2022-08-27T05:39:34.648Z,100991.41
2022-08-27T05:42:20.208Z,100988.28
2022-08-27T05:45:06.017Z,100984.38
2022-08-27T05:47:51.471Z,100981.25
2022-08-27T05:50:38.409Z,100988.25
2022-08-27T05:53:24.111Z,100975.94
2022-08-27T05:56:24.338Z,100980.06
2022-08-27T05:59:28.174Z,100992.97
2022-08-27T06:02:13.794Z,100988.63
2022-08-27T06:04:59.240Z,100990.09
2022-08-27T06:07:44.642Z,100993.75
2022-08-27T06:10:30.360Z,100992.34
2022-08-27T06:13:15.642Z,100997.06
2022-08-27T06:16:03.688Z,100995.50
2022-08-27T06:18:52.065Z,101002.13
2022-08-27T06:21:37.653Z,100996.47
2022-08-27T06:24:23.466Z,100993.88
2022-08-27T06:27:14.808Z,101002.84
2022-08-27T06:30:00.485Z,101007.53
2022-08-27T06:32:46.441Z,101010.53
2022-08-27T06:35:34.926Z,101005.84
2022-08-27T06:38:20.563Z,101009.53
2022-08-27T06:41:08.223Z,101016.56
2022-08-27T06:44:11.049Z,101009.94
2022-08-27T06:46:56.628Z,101018.25
2022-08-27T06:49:43.823Z,101003.75
2022-08-27T06:52:32.341Z,101014.94
2022-08-27T06:55:17.745Z,101005.44
2022-08-27T06:58:03.218Z,101008.81
2022-08-27T07:00:49.184Z,101019.25
2022-08-27T07:03:34.791Z,101006.69
2022-08-27T07:06:20.435Z,101003.69
2022-08-27T07:09:06.759Z,101003.72
2022-08-27T07:11:52.147Z,100999.19
2022-08-27T07:14:38.559Z,100983.41
2022-08-27T07:17:24.184Z,101011.63
2022-08-27T07:20:10.308Z,101011.91
2022-08-27T07:22:58.703Z,100999.63
2022-08-27T07:25:44.608Z,101004.53
2022-08-27T07:28:30.058Z,101020.94
2022-08-27T07:31:22.268Z,101017.50
2022-08-27T07:34:08.060Z,101016.69
2022-08-27T07:36:53.341Z,101028.47
2022-08-27T07:39:38.865Z,101026.16
2022-08-27T07:42:42.672Z,101023.72
2022-08-27T07:45:29.693Z,101031.38
2022-08-27T07:48:16.325Z,101035.97
2022-08-27T07:51:05.154Z,101033.41
2022-08-27T07:53:51.002Z,101036.34
2022-08-27T07:56:36.706Z,101039.66
2022-08-27T07:59:24.089Z,101054.03
2022-08-27T08:02:10.207Z,101044.84
2022-08-27T08:04:56.005Z,101042.41
2022-08-27T08:07:41.584Z,101054.50
2022-08-27T08:10:27.338Z,101055.69
2022-08-27T08:13:12.661Z,101044.31
2022-08-27T08:15:59.220Z,101056.78
2022-08-27T08:18:44.716Z,101063.66
2022-08-27T08:21:30.338Z,101061.25
2022-08-27T08:24:15.592Z,101056.94
2022-08-27T08:27:05.082Z,101066.22
2022-08-27T08:29:52.755Z,101065.25
2022-08-27T08:32:38.686Z,101077.63
2022-08-27T08:35:24.486Z,101067.56
2022-08-27T08:38:10.279Z,101081.47
2022-08-27T08:40:56.201Z,101088.13
2022-08-27T08:43:51.285Z,101088.13
2022-08-27T08:46:47.417Z,101085.06
2022-08-27T08:49:38.799Z,101080.28
2022-08-27T08:52:31.498Z,101085.38
2022-08-27T08:55:23.645Z,101090.50
2022-08-27T08:58:30.451Z,101097.56
2022-08-27T09:01:20.534Z,101094.34
2022-08-27T09:04:11.336Z,101099.78
2022-08-27T09:07:03.810Z,101104.94
2022-08-27T09:10:14.457Z,101103.59
2022-08-27T09:13:03.558Z,101105.03
2022-08-27T09:15:49.166Z,101101.63
2022-08-27T09:18:37.407Z,101118.81
2022-08-27T09:21:52.285Z,101111.22
2022-08-27T09:25:06.185Z,101104.69
2022-08-27T09:27:53.107Z,101109.59
2022-08-27T09:30:43.349Z,101111.41
2022-08-27T09:33:43.836Z,101113.03
2022-08-27T09:36:34.343Z,101112.59
2022-08-27T09:39:20.684Z,101109.59
2022-08-27T09:42:07.353Z,101120.91
2022-08-27T09:44:53.900Z,101116.06
2022-08-27T09:47:44.959Z,101112.03
2022-08-27T09:50:58.267Z,101114.97
2022-08-27T09:54:01.988Z,101118.59
2022-08-27T09:56:49.189Z,101108.34
2022-08-27T09:59:40.243Z,101115.22
2022-08-27T10:02:27.284Z,101122.50
2022-08-27T10:05:24.917Z,101120.00
2022-08-27T10:08:40.988Z,101119.28
2022-08-27T10:11:35.833Z,101123.84
2022-08-27T10:14:32.035Z,101111.59
2022-08-27T10:17:40.670Z,101114.94
2022-08-27T10:20:38.961Z,101126.19
2022-08-27T10:23:43.148Z,101120.34
2022-08-27T10:26:38.211Z,101119.38
2022-08-27T10:29:39.765Z,101121.44
2022-08-27T10:33:03.848Z,101126.38
2022-08-27T10:36:02.509Z,101123.22
2022-08-27T10:39:09.480Z,101131.47
2022-08-27T10:42:10.387Z,101136.09
2022-08-27T10:45:11.617Z,101126.50
2022-08-27T10:48:24.420Z,101129.88
2022-08-27T10:51:16.905Z,101131.72
2022-08-27T10:55:00.034Z,101131.50
2022-08-27T10:58:14.650Z,101125.84
2022-08-27T11:01:16.680Z,101136.56
2022-08-27T11:04:08.490Z,101133.84
2022-08-27T11:07:07.312Z,101131.31
2022-08-27T11:09:58.543Z,101133.50
2022-08-27T11:12:47.877Z,101130.25
2022-08-27T11:15:37.351Z,101143.72
2022-08-27T11:18:51.603Z,101127.31
2022-08-27T11:21:55.008Z,101132.25
2022-08-27T11:25:10.468Z,101141.63
2022-08-27T11:27:58.338Z,101132.03
2022-08-27T11:31:09.205Z,101132.66
2022-08-27T11:34:14.609Z,101139.09
2022-08-27T11:37:39.745Z,101145.84
2022-08-27T11:40:44.100Z,101138.00
2022-08-27T11:43:34.590Z,101146.56
2022-08-27T11:46:26.290Z,101161.44
2022-08-27T11:49:23.164Z,101142.63
2022-08-27T11:52:10.159Z,101150.75
2022-08-27T11:55:10.936Z,101147.88
2022-08-27T11:58:06.431Z,101155.13
2022-08-27T12:00:55.785Z,101157.41
2022-08-27T12:03:43.018Z,101159.72
2022-08-27T12:06:39.822Z,101161.94
2022-08-27T12:09:25.428Z,101158.78
2022-08-27T12:12:24.333Z,101159.69
2022-08-27T12:15:35.550Z,101156.63
2022-08-27T12:18:48.576Z,101157.94
2022-08-27T12:21:39.617Z,101160.31
2022-08-27T12:24:57.993Z,101157.19
2022-08-27T12:27:54.235Z,101158.00
2022-08-27T12:30:51.979Z,101148.88
2022-08-27T12:33:43.899Z,101128.28
2022-08-27T12:36:32.620Z,101156.03
2022-08-27T12:39:28.195Z,101159.06
2022-08-27T12:42:19.035Z,101158.25
2022-08-27T12:45:04.657Z,101151.81
2022-08-27T12:47:52.705Z,101157.13
2022-08-27T12:50:38.408Z,101162.13
2022-08-27T12:53:44.935Z,101163.97
2022-08-27T12:57:04.522Z,101166.53
2022-08-27T13:00:22.869Z,101161.94
2022-08-27T13:03:22.299Z,101158.41
2022-08-27T13:06:35.488Z,101158.34
2022-08-27T13:09:33.253Z,101171.28
2022-08-27T13:12:19.626Z,101159.00
2022-08-27T13:15:10.580Z,101156.47
2022-08-27T13:18:02.370Z,101155.56
2022-08-27T13:20:53.045Z,101158.53
2022-08-27T13:23:44.829Z,101153.25
2022-08-27T13:26:37.379Z,101157.13
2022-08-27T13:29:23.633Z,101146.44
2022-08-27T13:32:13.987Z,101155.75
2022-08-27T13:35:01.398Z,101146.41
2022-08-27T13:37:51.391Z,101167.13
2022-08-27T13:40:51.729Z,101162.00
2022-08-27T13:43:42.321Z,101169.06
2022-08-27T13:46:30.774Z,101166.63
2022-08-27T13:49:25.537Z,101171.44
2022-08-27T13:52:18.636Z,101165.78
2022-08-27T13:55:09.235Z,101160.28
2022-08-27T13:57:55.484Z,101142.56
2022-08-27T14:00:41.561Z,101145.75
2022-08-27T14:03:33.958Z,101146.72
2022-08-27T14:06:35.844Z,101146.00
2022-08-27T14:09:27.621Z,101159.00
2022-08-27T14:12:28.952Z,101148.88
2022-08-27T14:15:18.812Z,101154.69
2022-08-27T14:18:08.048Z,101150.97
2022-08-27T14:20:55.001Z,101138.66
2022-08-27T14:23:40.278Z,101146.38
2022-08-27T14:26:26.760Z,101147.09
2022-08-27T14:29:12.625Z,101147.66
2022-08-27T14:31:57.982Z,101137.13
2022-08-27T14:34:43.804Z,101142.03
2022-08-27T14:37:29.700Z,101140.47
2022-08-27T14:40:15.403Z,101130.16
2022-08-27T14:43:00.803Z,101140.56
2022-08-27T14:45:47.272Z,101135.50
2022-08-27T14:48:34.342Z,101144.22
2022-08-27T14:51:26.421Z,101137.59
2022-08-27T14:54:12.131Z,101132.94
2022-08-27T14:56:58.949Z,101130.25
2022-08-27T14:59:44.400Z,101134.84
2022-08-27T15:02:30.073Z,101134.84
2022-08-27T15:05:18.302Z,101142.44
2022-08-27T15:08:04.499Z,101139.81
2022-08-27T15:10:50.430Z,101134.56
2022-08-27T15:13:38.518Z,101142.13
2022-08-27T15:16:28.182Z,101134.88
2022-08-27T15:19:15.303Z,101126.50
2022-08-27T15:22:18.796Z,101124.03
2022-08-27T15:25:05.471Z,101124.53
2022-08-27T15:27:51.521Z,101118.09
2022-08-27T15:30:37.988Z,101110.25
2022-08-27T15:33:23.582Z,101122.47
2022-08-27T15:36:09.332Z,101111.13
2022-08-27T15:38:55.127Z,101118.94
2022-08-27T15:42:05.109Z,101119.63
2022-08-27T15:44:50.273Z,101117.66
2022-08-27T15:47:35.781Z,101112.41
2022-08-27T15:50:21.295Z,101113.06
2022-08-27T15:53:08.736Z,101109.69
2022-08-27T15:55:55.532Z,101114.81
2022-08-27T15:58:40.876Z,101108.78
2022-08-27T16:01:29.698Z,101111.88
2022-08-27T16:04:15.644Z,101101.50
2022-08-27T16:07:01.236Z,101105.47
2022-08-27T16:09:46.679Z,101116.06
2022-08-27T16:12:31.916Z,101110.31
2022-08-27T16:15:17.430Z,101111.72
2022-08-27T16:18:04.338Z,101109.84
2022-08-27T16:20:50.004Z,101109.03
2022-08-27T16:23:36.160Z,101095.22
2022-08-27T16:26:22.167Z,101110.69
2022-08-27T16:29:08.489Z,101107.84
2022-08-27T16:32:00.559Z,101107.66
2022-08-27T16:34:47.576Z,101105.19
2022-08-27T16:37:42.382Z,101114.00
2022-08-27T16:40:28.273Z,101124.00
2022-08-27T16:43:20.927Z,101108.78
2022-08-27T16:46:07.342Z,101117.41
2022-08-27T16:49:11.642Z,101124.88
2022-08-27T16:51:57.455Z,101115.59
2022-08-27T16:54:42.912Z,101112.84
2022-08-27T16:57:28.333Z,101116.63
2022-08-27T17:00:14.035Z,101115.50
2022-08-27T17:03:00.365Z,101121.19
2022-08-27T17:05:46.177Z,101123.47
2022-08-27T17:08:47.797Z,101111.41
2022-08-27T17:11:35.530Z,101120.88
2022-08-27T17:14:21.205Z,101132.94
2022-08-27T17:17:06.426Z,101126.84
2022-08-27T17:19:51.927Z,101129.38
2022-08-27T17:22:37.898Z,101133.81
2022-08-27T17:25:23.325Z,101141.22
2022-08-27T17:28:15.784Z,101132.03
2022-08-27T17:31:02.264Z,101137.34
2022-08-27T17:33:50.348Z,101143.22
2022-08-27T17:36:35.765Z,101140.13
2022-08-27T17:39:21.351Z,101143.50
2022-08-27T17:42:07.437Z,101143.97
2022-08-27T17:44:52.804Z,101153.84
2022-08-27T17:47:38.465Z,101149.88
2022-08-27T17:50:23.950Z,101140.94
2022-08-27T17:53:09.483Z,101158.00
2022-08-27T17:55:54.893Z,101145.88
2022-08-27T17:58:40.854Z,101167.34
2022-08-27T18:01:30.155Z,101157.41
2022-08-27T18:04:15.867Z,101151.59
2022-08-27T18:07:01.216Z,101163.09
2022-08-27T18:09:47.530Z,101162.88
2022-08-27T18:12:33.386Z,101162.44
2022-08-27T18:15:23.491Z,101168.22
2022-08-27T18:18:10.068Z,101176.66
2022-08-27T18:20:55.809Z,101180.59
2022-08-27T18:23:42.657Z,101182.34
2022-08-27T18:26:31.138Z,101185.03
2022-08-27T18:29:16.823Z,101189.75
2022-08-27T18:32:02.246Z,101200.06
2022-08-27T18:34:47.846Z,101200.31
2022-08-27T18:37:33.453Z,101199.88
2022-08-27T18:40:21.033Z,101186.53
2022-08-27T18:43:06.869Z,101204.84
2022-08-27T18:45:52.458Z,101198.50
2022-08-27T18:48:40.962Z,101202.16
2022-08-27T18:51:26.710Z,101211.84
2022-08-27T18:54:23.343Z,101202.88
2022-08-27T18:57:08.746Z,101203.97
2022-08-27T18:59:54.154Z,101208.44
2022-08-27T19:02:40.466Z,101213.13
2022-08-27T19:05:27.664Z,101209.84
2022-08-27T19:08:13.725Z,101215.78
2022-08-27T19:10:59.215Z,101210.28
2022-08-27T19:13:44.702Z,101219.97
2022-08-27T19:16:53.761Z,101222.16
2022-08-27T19:19:39.433Z,101222.97
2022-08-27T19:22:26.709Z,101225.00
2022-08-27T19:25:12.667Z,101233.22
2022-08-27T19:27:58.287Z,101237.94
2022-08-27T19:30:44.772Z,101236.75
2022-08-27T19:33:30.552Z,101248.19
2022-08-27T19:36:18.828Z,101248.56
2022-08-27T19:39:06.175Z,101250.72
2022-08-27T19:41:51.347Z,101260.06
2022-08-27T19:44:37.094Z,101255.72
2022-08-27T19:47:25.808Z,101269.22
2022-08-27T19:50:13.356Z,101263.78
2022-08-27T19:52:59.107Z,101275.88
2022-08-27T19:55:45.967Z,101257.41
2022-08-27T19:58:31.498Z,101271.75
2022-08-27T20:01:17.126Z,101275.59
2022-08-27T20:04:03.844Z,101270.66
2022-08-27T20:06:49.486Z,101278.50
2022-08-27T20:09:35.353Z,101273.22
2022-08-27T20:12:21.353Z,101274.72
2022-08-27T20:15:06.906Z,101276.06
2022-08-27T20:17:53.971Z,101274.50
2022-08-27T20:20:40.498Z,101275.19
2022-08-27T20:23:25.956Z,101279.31
2022-08-27T20:26:11.696Z,101280.34
2022-08-27T20:28:58.094Z,101264.75
2022-08-27T20:31:43.922Z,101264.44
2022-08-27T20:34:29.570Z,101266.16
2022-08-27T20:37:17.184Z,101270.28
2022-08-27T20:40:03.510Z,101273.56
2022-08-27T20:42:48.879Z,101265.06
2022-08-27T20:45:34.722Z,101278.97
2022-08-27T20:48:20.277Z,101276.63
2022-08-27T20:51:06.157Z,101280.81
2022-08-27T20:53:52.245Z,101272.09
2022-08-27T20:56:37.557Z,101272.50
2022-08-27T20:59:41.655Z,101285.34
2022-08-27T21:02:29.303Z,101285.34
2022-08-27T21:05:16.316Z,101294.03
2022-08-27T21:08:04.476Z,101293.47
2022-08-27T21:10:56.691Z,101293.72
2022-08-27T21:13:55.636Z,101300.41
2022-08-27T21:16:42.405Z,101290.97
2022-08-27T21:19:28.041Z,101293.06
2022-08-27T21:22:13.367Z,101290.63
2022-08-27T21:24:58.658Z,101287.97
2022-08-27T21:27:44.334Z,101287.09
2022-08-27T21:30:30.614Z,101292.63
2022-08-27T21:33:16.281Z,101284.91
2022-08-27T21:36:04.383Z,101297.69
2022-08-27T21:38:49.917Z,101293.16
2022-08-27T21:41:37.552Z,101288.53
2022-08-27T21:44:23.360Z,101297.34
2022-08-27T21:47:09.804Z,101297.97
2022-08-27T21:49:55.336Z,101301.16
2022-08-27T21:52:40.826Z,101298.16
2022-08-27T21:55:26.319Z,101291.34
2022-08-27T21:58:13.631Z,101307.31
2022-08-27T22:01:01.647Z,101294.47
2022-08-27T22:03:50.591Z,101286.75
2022-08-27T22:06:36.138Z,101294.09
2022-08-27T22:09:21.740Z,101288.53
2022-08-27T22:12:07.311Z,101291.28
2022-08-27T22:14:52.717Z,101293.94
2022-08-27T22:17:38.093Z,101299.31
2022-08-27T22:20:24.629Z,101297.31
2022-08-27T22:23:11.840Z,101303.84
2022-08-27T22:25:57.870Z,101293.25
2022-08-27T22:28:43.200Z,101298.53
2022-08-27T22:31:28.900Z,101295.69
2022-08-27T22:34:15.100Z,101298.91
2022-08-27T22:37:01.692Z,101293.25
2022-08-27T22:39:47.153Z,101289.16
2022-08-27T22:42:32.606Z,101284.53
2022-08-27T22:45:20.422Z,101299.16
2022-08-27T22:48:06.062Z,101297.88
2022-08-27T22:50:51.603Z,101290.66
2022-08-27T22:53:39.386Z,101290.06
2022-08-27T22:56:25.672Z,101295.63
2022-08-27T22:59:11.027Z,101290.53
2022-08-27T23:01:57.199Z,101303.00
2022-08-27T23:04:54.597Z,101290.63
2022-08-27T23:07:41.306Z,101292.19
2022-08-27T23:10:27.476Z,101288.84
2022-08-27T23:13:13.455Z,101301.31
2022-08-27T23:16:00.548Z,101296.69
2022-08-27T23:18:46.030Z,101294.47
2022-08-27T23:21:31.683Z,101301.28
2022-08-27T23:24:17.131Z,101291.41
2022-08-27T23:27:21.212Z,101297.22
2022-08-27T23:30:07.965Z,101294.66
2022-08-27T23:32:55.315Z,101300.13
2022-08-27T23:35:44.318Z,101305.25
2022-08-27T23:38:30.227Z,101298.44
2022-08-27T23:41:16.279Z,101293.50
2022-08-27T23:44:02.066Z,101300.81
2022-08-27T23:46:48.515Z,101291.22
2022-08-27T23:49:36.135Z,101294.50
2022-08-27T23:52:21.820Z,101298.13
2022-08-27T23:55:09.570Z,101287.22
2022-08-27T23:57:57.616Z,101296.59
